Crawfordville, Georgia
Current Conditions -  °F | °C
As of 10:55 PM on Saturday 20 Dec 2014 (Local Time) from K3J7 Reporting Station
Haze Haze  
Wind Chill: 43°   Ceiling: 300
Heat Index: 43°   Visibility: 2mi
Dew Point: 43°   Wind: 0mph
Humidity: 100%   Direction: NA
Pressure: 30.19"   Gusts: NA
Location:  33.55°N, 82.9°W
Report Text: K3J7 210355Z AUTO 00000KT 2SM BR OVC003 06/06 A3019 RMK AO2
Loading
Personal Weather Stations






























Interactive Weather Map New forecast layout! Learn more

10-Day Weather Forecast

Advertisements
Track Severe Weather on mobile